Time;durP1;ratioP1;P1;durP2;ratioP2;P2;SDS_P1;SDS_P2;PMS_P1;PMS_P2;Temp;Humidity;BMP_temperature;BMP_pressure;BME280_temperature;BME280_humidity;BME280_pressure;Samples;Min_cycle;Max_cycle;Signal;HPM_P1;HPM_P2
2021/07/07 00:01:03;;;;;;;3.03;2.70;;;;;;;21.24;67.95;100695.94;5058732;28;20276;-69
2021/07/07 00:03:33;;;;;;;2.87;2.40;;;;;;;21.07;67.06;100659.56;5066026;28;20271;-69
2021/07/07 00:06:01;;;;;;;2.50;2.30;;;;;;;21.31;67.27;100705.13;5062351;28;20606;-69
2021/07/07 00:08:31;;;;;;;4.23;2.30;;;;;;;21.35;66.81;100697.44;5066143;28;20300;-68
2021/07/07 00:11:03;;;;;;;3.27;2.37;;;;;;;21.30;67.64;100689.78;5066470;28;20293;-67
2021/07/07 00:13:31;;;;;;;3.33;2.33;;;;;;;21.33;67.14;100694.03;5061728;28;20196;-67
2021/07/07 00:16:03;;;;;;;2.40;2.20;;;;;;;21.33;67.12;100699.50;5060989;28;20197;-67
2021/07/07 00:18:31;;;;;;;3.43;2.23;;;;;;;21.34;67.83;100699.31;5065050;28;20675;-67
2021/07/07 00:20:59;;;;;;;3.37;2.20;;;;;;;21.33;67.79;100704.97;5061700;28;20208;-67
2021/07/07 00:23:29;;;;;;;3.20;2.20;;;;;;;21.25;68.24;100702.25;5066193;28;20198;-67
2021/07/07 00:25:57;;;;;;;3.53;2.60;;;;;;;21.00;68.42;100672.22;5061542;28;20193;-67
2021/07/07 00:28:30;;;;;;;3.87;2.60;;;;;;;21.19;69.34;100702.94;5060143;28;20225;-67
2021/07/07 00:30:58;;;;;;;2.80;2.33;;;;;;;21.22;68.89;100700.69;5061916;28;20251;-67
2021/07/07 00:33:26;;;;;;;2.67;2.37;;;;;;;21.25;68.13;100702.25;5064781;28;20201;-67
2021/07/07 00:35:54;;;;;;;3.47;2.30;;;;;;;21.26;67.76;100713.00;5061136;28;20205;-69
2021/07/07 00:38:22;;;;;;;2.87;2.50;;;;;;;21.25;68.55;100714.03;5067271;28;20636;-67
2021/07/07 00:40:51;;;;;;;2.77;2.40;;;;;;;21.24;68.33;100706.88;5067053;28;20225;-67
2021/07/07 00:43:19;;;;;;;2.50;2.30;;;;;;;21.29;67.77;100715.38;5067850;28;20205;-67
2021/07/07 00:45:48;;;;;;;6.53;2.50;;;;;;;21.29;68.23;100709.06;5062648;28;20209;-67
2021/07/07 00:48:17;;;;;;;4.47;2.40;;;;;;;21.28;68.14;100719.16;5065653;28;20205;-67
2021/07/07 00:50:45;;;;;;;2.50;2.23;;;;;;;21.29;68.08;100720.00;5066026;28;20684;-68
2021/07/07 00:53:14;;;;;;;3.13;2.40;;;;;;;21.27;69.00;100722.91;5065991;28;20709;-68
2021/07/07 00:55:42;;;;;;;3.00;2.50;;;;;;;21.29;68.51;100734.50;5067379;28;20293;-67
2021/07/07 00:58:11;;;;;;;2.60;2.30;;;;;;;21.29;68.73;100737.25;5066457;28;20281;-67
2021/07/07 01:00:40;;;;;;;2.63;2.20;;;;;;;21.32;67.85;100753.28;5061384;28;20202;-67
2021/07/07 01:03:09;;;;;;;2.70;2.33;;;;;;;21.35;67.58;100754.81;5057109;28;20208;-69
2021/07/07 01:05:38;;;;;;;2.77;2.30;;;;;;;21.31;68.77;100762.50;5060896;28;20204;-69
2021/07/07 01:08:06;;;;;;;3.47;2.53;;;;;;;21.25;69.25;100757.75;5061784;28;20256;-69
2021/07/07 01:10:34;;;;;;;3.07;2.53;;;;;;;21.24;69.40;100761.50;5061352;28;20216;-69
2021/07/07 01:13:02;;;;;;;2.37;2.17;;;;;;;21.27;69.50;100766.63;5060122;28;20208;-69
2021/07/07 01:15:30;;;;;;;3.10;2.50;;;;;;;21.21;69.64;100761.81;5061315;28;20680;-69
2021/07/07 01:17:58;;;;;;;4.77;2.10;;;;;;;21.26;69.46;100775.84;5053157;28;20732;-69
2021/07/07 01:20:28;;;;;;;3.07;2.77;;;;;;;21.29;68.80;100780.97;5057916;28;20276;-69
2021/07/07 01:22:58;;;;;;;5.00;2.40;;;;;;;21.30;69.57;100793.59;5055885;28;20311;-69
2021/07/07 01:25:27;;;;;;;3.80;2.87;;;;;;;21.15;71.06;100780.78;5061912;28;20216;-69
2021/07/07 01:27:57;;;;;;;3.63;2.93;;;;;;;21.08;73.31;100786.06;5058306;28;20468;-69
2021/07/07 01:30:25;;;;;;;4.60;2.90;;;;;;;20.95;72.54;100778.38;5039378;28;20205;-69
2021/07/07 01:32:54;;;;;;;4.97;3.10;;;;;;;20.85;72.70;100768.66;5042907;28;20260;-69
2021/07/07 01:35:23;;;;;;;3.57;3.10;;;;;;;20.71;72.52;100742.88;5049459;28;20205;-68
2021/07/07 01:37:53;;;;;;;3.73;3.00;;;;;;;20.89;71.42;100772.75;5048780;28;20255;-68
2021/07/07 01:40:24;;;;;;;4.87;2.83;;;;;;;20.82;73.26;100777.19;5047326;28;20202;-69
2021/07/07 01:43:00;;;;;;;8.80;3.33;;;;;;;20.69;73.49;100758.56;5045672;28;20233;-69
2021/07/07 01:45:35;;;;;;;4.83;2.97;;;;;;;20.63;74.50;100775.63;5053023;28;20267;-70
2021/07/07 01:48:17;;;;;;;5.30;3.00;;;;;;;20.55;74.08;100754.66;5044997;28;20258;-69
2021/07/07 01:51:02;;;;;;;5.83;3.03;;;;;;;20.63;74.23;100762.84;5039607;28;20806;-69
2021/07/07 01:53:40;;;;;;;4.00;3.07;;;;;;;20.53;74.57;100740.31;5053336;28;20202;-69
2021/07/07 01:56:31;;;;;;;6.27;3.00;;;;;;;20.56;74.93;100753.63;5052545;28;20298;-70
2021/07/07 01:59:08;;;;;;;3.47;2.83;;;;;;;19.62;74.99;100608.53;5049180;28;20737;-69
2021/07/07 02:01:39;;;;;;;5.97;2.70;;;;;;;20.38;75.55;100748.25;5048945;28;20213;-68
2021/07/07 02:04:07;;;;;;;3.13;2.70;;;;;;;20.31;76.11;100749.97;5048009;28;20217;-69
2021/07/07 02:06:35;;;;;;;3.07;2.77;;;;;;;20.25;76.87;100747.91;5044787;28;20198;-69
2021/07/07 02:09:06;;;;;;;3.43;2.77;;;;;;;20.25;76.98;100755.22;5043564;28;20332;-69
2021/07/07 02:11:36;;;;;;;5.67;2.70;;;;;;;20.26;76.88;100748.75;5042741;28;20300;-69
2021/07/07 02:14:05;;;;;;;2.80;2.50;;;;;;;20.17;77.05;100748.72;5038091;28;20201;-69
2021/07/07 02:16:33;;;;;;;3.27;2.53;;;;;;;20.14;77.02;100742.72;5033419;28;20202;-69
2021/07/07 02:19:01;;;;;;;3.10;2.77;;;;;;;20.14;77.05;100754.50;5043611;28;20271;-69
2021/07/07 02:21:29;;;;;;;5.60;2.43;;;;;;;20.07;78.16;100745.28;5032591;28;20765;-69
2021/07/07 02:23:57;;;;;;;4.60;2.50;;;;;;;19.98;77.85;100738.09;5037294;28;20198;-69
2021/07/07 02:26:26;;;;;;;8.87;2.77;;;;;;;20.12;77.16;100752.97;5033749;28;20581;-69
2021/07/07 02:28:56;;;;;;;6.37;2.70;;;;;;;20.09;77.90;100754.16;5035174;28;20223;-69
2021/07/07 02:31:24;;;;;;;3.90;2.80;;;;;;;20.11;77.59;100752.09;5062557;28;20350;-70
2021/07/07 02:33:53;;;;;;;3.23;2.80;;;;;;;20.16;76.83;100751.59;5054649;28;20202;-69
2021/07/07 02:36:21;;;;;;;3.03;2.50;;;;;;;20.15;76.39;100736.25;5036455;28;20217;-69
2021/07/07 02:38:49;;;;;;;11.60;2.57;;;;;;;20.16;75.77;100736.09;5033417;28;20206;-68
2021/07/07 02:41:17;;;;;;;2.97;2.23;;;;;;;20.25;76.32;100741.59;5037309;28;20229;-68
2021/07/07 02:43:45;;;;;;;2.83;2.40;;;;;;;20.21;76.81;100737.50;5032566;28;20235;-68
2021/07/07 02:46:15;;;;;;;4.67;2.57;;;;;;;20.20;76.32;100733.03;5050341;28;20202;-68
2021/07/07 02:48:43;;;;;;;4.63;2.60;;;;;;;20.15;77.26;100742.56;5038629;28;22170;-70
2021/07/07 02:51:11;;;;;;;3.43;2.80;;;;;;;20.13;77.15;100732.84;5040899;28;20194;-67
2021/07/07 02:53:40;;;;;;;2.93;2.63;;;;;;;20.11;77.10;100735.75;5043713;28;20565;-68
2021/07/07 02:56:08;;;;;;;3.67;2.67;;;;;;;20.16;76.75;100736.09;5042386;28;20220;-68
2021/07/07 02:58:36;;;;;;;3.10;2.67;;;;;;;20.16;76.55;100724.34;5040473;28;20202;-67
2021/07/07 03:01:04;;;;;;;3.30;2.90;;;;;;;20.18;76.60;100727.75;5043806;28;20217;-68
2021/07/07 03:03:34;;;;;;;4.10;2.70;;;;;;;20.11;77.55;100724.84;5050222;28;20252;-68
2021/07/07 03:06:03;;;;;;;5.23;3.40;;;;;;;20.11;77.46;100722.09;5039937;28;20289;-68
2021/07/07 03:08:33;;;;;;;3.87;3.00;;;;;;;20.12;77.34;100718.34;5044758;28;20216;-68
2021/07/07 03:11:02;;;;;;;2.93;2.70;;;;;;;20.15;76.49;100718.03;5048664;28;20221;-68
2021/07/07 03:13:31;;;;;;;4.03;3.10;;;;;;;20.17;77.08;100713.25;5040512;28;20308;-70
2021/07/07 03:15:59;;;;;;;5.93;3.27;;;;;;;20.16;77.54;100708.81;5040418;28;20202;-70
2021/07/07 03:18:28;;;;;;;7.00;3.10;;;;;;;20.16;77.32;100708.81;5037304;28;20274;-69
2021/07/07 03:20:58;;;;;;;4.27;2.83;;;;;;;20.12;76.44;100703.88;5044288;28;20275;-69
2021/07/07 03:23:26;;;;;;;3.20;2.90;;;;;;;20.23;75.96;100710.91;5051274;28;20289;-70
2021/07/07 03:25:55;;;;;;;3.43;3.07;;;;;;;20.14;77.30;100712.75;5049511;28;20720;-70
2021/07/07 03:28:25;;;;;;;4.90;3.00;;;;;;;20.01;78.33;100717.81;5044857;28;20590;-69
2021/07/07 03:30:53;;;;;;;4.23;3.27;;;;;;;19.59;79.54;100657.88;5045551;28;20220;-69
2021/07/07 03:33:21;;;;;;;3.60;3.07;;;;;;;19.92;79.39;100716.09;5039930;28;20198;-69
2021/07/07 03:35:50;;;;;;;4.00;3.27;;;;;;;19.93;79.99;100717.81;5042964;28;20256;-68
2021/07/07 03:38:20;;;;;;;3.73;3.23;;;;;;;19.88;79.91;100715.56;5047258;28;20692;-67
2021/07/07 03:40:48;;;;;;;3.73;3.10;;;;;;;19.80;80.60;100713.66;5047843;28;20294;-67
2021/07/07 03:43:16;;;;;;;5.53;3.37;;;;;;;19.79;81.12;100719.28;5046138;28;20666;-66
2021/07/07 03:45:44;;;;;;;4.20;3.30;;;;;;;19.78;80.65;100731.19;5044176;28;20204;-68
2021/07/07 03:48:12;;;;;;;3.40;3.00;;;;;;;19.72;80.74;100719.09;5051420;28;20220;-67
2021/07/07 03:50:41;;;;;;;4.10;3.13;;;;;;;19.76;81.79;100716.88;5041947;28;20245;-68
2021/07/07 03:53:09;;;;;;;4.17;3.10;;;;;;;19.71;81.71;100708.34;5045122;28;20213;-68
2021/07/07 03:55:39;;;;;;;4.77;3.07;;;;;;;19.68;82.09;100701.34;5050410;28;20202;-69
2021/07/07 03:58:07;;;;;;;3.53;3.23;;;;;;;19.64;83.06;100716.31;5049753;28;20233;-70
2021/07/07 04:00:36;;;;;;;4.37;3.23;;;;;;;19.57;82.48;100715.25;5044808;28;20195;-70
2021/07/07 04:03:06;;;;;;;4.33;3.10;;;;;;;19.67;83.08;100718.72;5053797;28;20547;-70
2021/07/07 04:05:35;;;;;;;5.07;3.67;;;;;;;19.47;82.40;100676.34;5039795;28;20257;-70
2021/07/07 04:08:03;;;;;;;4.43;3.30;;;;;;;19.82;81.47;100721.66;5041550;28;20206;-70
2021/07/07 04:10:31;;;;;;;3.87;2.73;;;;;;;19.93;80.30;100709.63;5048125;28;20229;-70
2021/07/07 04:13:01;;;;;;;4.33;3.13;;;;;;;19.91;80.77;100719.84;5044037;28;20210;-70
2021/07/07 04:15:29;;;;;;;5.00;3.57;;;;;;;19.81;81.82;100719.97;5043309;28;20592;-70
2021/07/07 04:17:57;;;;;;;6.40;3.30;;;;;;;19.79;81.56;100713.81;5049831;28;20286;-70
2021/07/07 04:20:26;;;;;;;3.97;3.50;;;;;;;19.73;83.52;100709.03;5047732;28;20202;-70
2021/07/07 04:22:54;;;;;;;5.23;3.30;;;;;;;19.71;83.39;100705.63;5046728;28;20190;-70
2021/07/07 04:25:22;;;;;;;3.33;3.00;;;;;;;19.67;84.31;100710.53;5049387;28;20576;-69
2021/07/07 04:27:50;;;;;;;4.37;3.10;;;;;;;19.76;84.00;100708.69;5039389;28;20193;-69
2021/07/07 04:30:21;;;;;;;4.10;3.50;;;;;;;19.77;84.51;100707.69;5059214;28;20224;-70
2021/07/07 04:32:49;;;;;;;3.50;3.20;;;;;;;19.54;84.92;100689.19;5057504;28;20677;-69
2021/07/07 04:35:18;;;;;;;4.17;3.57;;;;;;;19.70;85.12;100706.63;5043634;28;20601;-69
2021/07/07 04:37:48;;;;;;;6.20;4.27;;;;;;;19.73;85.17;100709.03;5047886;28;20530;-67
2021/07/07 04:40:18;;;;;;;5.47;3.87;;;;;;;19.79;86.01;100716.53;5054984;28;20192;-67
2021/07/07 04:42:48;;;;;;;5.57;4.43;;;;;;;19.92;85.19;100719.69;5064773;28;20210;-67
2021/07/07 04:45:16;;;;;;;4.97;4.10;;;;;;;19.78;85.67;100695.75;5053432;28;20200;-67
2021/07/07 04:47:46;;;;;;;6.67;4.13;;;;;;;19.96;86.11;100709.28;5045988;28;20190;-67
2021/07/07 04:50:17;;;;;;;5.40;4.30;;;;;;;20.06;85.64;100721.75;5040777;28;20737;-66
2021/07/07 04:52:46;;;;;;;9.30;4.70;;;;;;;20.13;85.70;100728.25;5048139;28;20740;-67
2021/07/07 04:55:15;;;;;;;6.17;4.33;;;;;;;20.16;85.65;100730.63;5051809;28;20203;-67
2021/07/07 04:57:44;;;;;;;6.27;4.27;;;;;;;20.20;86.06;100738.47;5051802;28;20197;-68
2021/07/07 05:00:16;;;;;;;6.27;4.70;;;;;;;20.16;86.12;100733.38;5043227;28;20209;-68
2021/07/07 05:02:46;;;;;;;8.03;4.53;;;;;;;20.28;85.27;100744.84;5044086;28;20202;-68
2021/07/07 05:05:16;;;;;;;5.73;4.40;;;;;;;20.29;85.66;100730.19;5036466;28;20714;-68
2021/07/07 05:07:45;;;;;;;5.77;4.57;;;;;;;20.33;86.34;100738.88;5038418;28;20213;-68
2021/07/07 05:10:15;;;;;;;7.43;4.57;;;;;;;20.37;85.33;100734.78;5048457;28;20621;-69
2021/07/07 05:12:44;;;;;;;7.90;4.80;;;;;;;20.46;85.14;100745.56;5052641;28;20197;-69
2021/07/07 05:15:14;;;;;;;7.17;5.13;;;;;;;20.40;86.34;100745.41;5046518;28;20202;-68
2021/07/07 05:17:44;;;;;;;5.63;4.47;;;;;;;20.44;85.90;100746.75;5047739;28;20209;-69
2021/07/07 05:20:15;;;;;;;7.27;4.73;;;;;;;20.42;86.50;100744.22;5050171;28;20615;-69
2021/07/07 05:22:44;;;;;;;4.93;4.00;;;;;;;20.42;86.34;100741.47;5044227;28;20224;-68
2021/07/07 05:25:13;;;;;;;6.47;4.60;;;;;;;20.50;86.56;100751.53;5051533;28;20202;-69
2021/07/07 05:27:41;;;;;;;9.47;4.80;;;;;;;20.64;85.27;100753.63;5044804;28;20194;-69
2021/07/07 05:30:12;;;;;;;8.50;5.67;;;;;;;20.62;85.97;100760.28;5040011;28;20264;-68
2021/07/07 05:32:41;;;;;;;6.33;4.87;;;;;;;20.48;86.53;100741.81;5052694;28;20234;-68
2021/07/07 05:35:11;;;;;;;7.47;4.93;;;;;;;20.48;85.80;100720.84;5045485;28;20199;-68
2021/07/07 05:37:46;;;;;;;6.43;4.57;;;;;;;20.85;84.51;100766.78;5048112;28;20258;-68
2021/07/07 05:40:16;;;;;;;6.73;5.10;;;;;;;20.85;84.81;100768.66;5041897;28;20285;-68
2021/07/07 05:42:49;;;;;;;6.20;4.83;;;;;;;20.82;85.86;100779.94;5045033;28;20624;-69
2021/07/07 05:45:18;;;;;;;7.30;4.80;;;;;;;20.98;83.33;100778.03;5044836;28;20236;-69
2021/07/07 05:47:46;;;;;;;8.37;5.00;;;;;;;21.08;81.67;100783.31;5044883;28;20204;-69
2021/07/07 05:50:16;;;;;;;7.73;4.87;;;;;;;20.74;81.35;100726.16;5040762;28;20191;-69
2021/07/07 05:52:45;;;;;;;5.53;4.43;;;;;;;21.02;82.97;100781.28;5043489;28;20617;-69
2021/07/07 05:55:15;;;;;;;7.20;4.73;;;;;;;20.96;83.26;100782.81;5041440;28;20673;-69
2021/07/07 05:57:43;;;;;;;9.50;5.73;;;;;;;21.09;82.22;100779.56;5048691;28;20297;-69
2021/07/07 06:00:14;;;;;;;7.00;4.93;;;;;;;21.18;80.70;100789.50;5041786;28;20289;-69
2021/07/07 06:02:44;;;;;;;10.00;5.00;;;;;;;21.11;82.68;100782.97;5039657;28;20202;-69
2021/07/07 06:05:12;;;;;;;6.20;4.87;;;;;;;21.04;83.08;100781.97;5042596;28;20736;-69
2021/07/07 06:07:41;;;;;;;6.30;4.90;;;;;;;21.11;82.06;100787.59;5043877;28;20198;-69
2021/07/07 06:10:13;;;;;;;6.50;5.10;;;;;;;21.12;82.91;100781.94;5043649;28;20749;-69
2021/07/07 06:12:42;;;;;;;9.03;5.70;;;;;;;21.03;84.38;100791.19;5047997;28;20202;-69
2021/07/07 06:15:12;;;;;;;9.53;5.60;;;;;;;21.07;83.36;100800.72;5048184;28;20209;-70
2021/07/07 06:17:40;;;;;;;8.87;5.30;;;;;;;20.86;83.99;100767.66;5046242;28;20198;-69
2021/07/07 06:20:12;;;;;;;9.30;5.80;;;;;;;20.96;85.20;100790.16;5042701;28;20274;-69
2021/07/07 06:22:41;;;;;;;7.77;5.50;;;;;;;20.85;86.07;100787.78;5060036;28;20573;-69
2021/07/07 06:25:13;;;;;;;7.43;5.63;;;;;;;20.77;87.10;100789.47;5045231;28;20383;-67
2021/07/07 06:27:42;;;;;;;7.67;4.97;;;;;;;20.91;85.65;100787.94;5048634;28;20567;-70
2021/07/07 06:30:13;;;;;;;9.53;5.93;;;;;;;20.90;86.64;100779.94;5048024;28;20542;-68
2021/07/07 06:32:43;;;;;;;9.47;5.00;;;;;;;21.02;85.33;100781.28;5049499;28;20253;-68
2021/07/07 06:35:12;;;;;;;11.47;5.70;;;;;;;20.99;86.21;100787.09;5049052;28;20198;-69
2021/07/07 06:37:40;;;;;;;6.57;4.90;;;;;;;20.82;87.25;100782.66;5047935;28;20525;-68
2021/07/07 06:40:11;;;;;;;7.23;5.67;;;;;;;20.70;87.44;100752.09;5051862;28;20606;-68
2021/07/07 06:42:40;;;;;;;10.03;5.53;;;;;;;20.84;88.31;100797.84;5046009;28;20200;-69
2021/07/07 06:45:10;;;;;;;9.63;5.53;;;;;;;20.80;89.01;100790.13;5047116;28;20748;-69
2021/07/07 06:47:39;;;;;;;11.13;5.50;;;;;;;20.77;88.92;100764.03;5048850;28;20221;-69
2021/07/07 06:50:10;;;;;;;9.93;5.43;;;;;;;20.83;89.14;100766.09;5050632;28;20196;-69
2021/07/07 06:52:38;;;;;;;7.80;5.27;;;;;;;20.88;89.19;100765.59;5050287;28;20313;-69
2021/07/07 06:55:08;;;;;;;12.43;5.67;;;;;;;20.97;88.57;100768.16;5047485;28;20323;-69
2021/07/07 06:57:38;;;;;;;7.50;5.73;;;;;;;21.03;88.80;100772.06;5050892;28;20202;-69
2021/07/07 07:00:12;;;;;;;10.47;5.47;;;;;;;21.20;87.89;100779.25;5051768;28;20564;-69
2021/07/07 07:02:41;;;;;;;9.30;5.13;;;;;;;21.16;86.89;100768.84;5052916;28;20197;-69
2021/07/07 07:05:11;;;;;;;7.60;5.33;;;;;;;21.22;87.71;100751.75;5046425;28;20251;-70
2021/07/07 07:07:39;;;;;;;9.67;4.57;;;;;;;21.27;86.83;100758.44;5046598;28;20217;-69
2021/07/07 07:10:09;;;;;;;11.63;5.60;;;;;;;21.36;86.96;100762.00;5047040;28;20264;-69
2021/07/07 07:12:40;;;;;;;12.73;5.30;;;;;;;21.39;87.50;100765.22;5050448;28;20304;-70
2021/07/07 07:15:10;;;;;;;10.03;4.90;;;;;;;21.39;86.17;100743.38;5048352;28;20212;-69
2021/07/07 07:17:40;;;;;;;7.27;5.00;;;;;;;21.74;86.29;100782.25;5046164;28;20725;-68
2021/07/07 07:20:11;;;;;;;8.40;5.07;;;;;;;21.83;86.12;100799.47;5051738;28;20202;-69
2021/07/07 07:22:40;;;;;;;8.67;4.60;;;;;;;21.81;85.84;100807.84;5051251;28;20194;-68
2021/07/07 07:25:10;;;;;;;7.37;5.13;;;;;;;21.81;85.06;100818.78;5050842;28;21004;-69
2021/07/07 07:27:41;;;;;;;6.47;4.47;;;;;;;21.97;83.36;100820.63;5046824;28;20277;-69
2021/07/07 07:30:11;;;;;;;6.33;4.70;;;;;;;21.89;84.11;100816.03;5049303;28;20194;-69
2021/07/07 07:32:43;;;;;;;6.63;4.77;;;;;;;21.76;84.80;100820.34;5046999;28;20234;-69
2021/07/07 07:35:14;;;;;;;8.07;4.80;;;;;;;21.73;85.44;100821.53;5048567;28;20194;-70
2021/07/07 07:37:47;;;;;;;9.97;5.10;;;;;;;21.64;85.84;100811.66;5051882;28;20205;-69
2021/07/07 07:40:21;;;;;;;8.13;5.07;;;;;;;21.63;85.52;100810.78;5047237;28;20665;-69
2021/07/07 07:42:51;;;;;;;5.80;4.80;;;;;;;21.76;85.47;100817.63;5048015;28;20205;-69
2021/07/07 07:45:20;;;;;;;9.07;4.97;;;;;;;21.78;85.94;100830.09;5052828;28;20716;-69
2021/07/07 07:47:49;;;;;;;6.57;5.13;;;;;;;21.80;85.37;100832.66;5046640;28;20661;-70
2021/07/07 07:50:17;;;;;;;9.10;5.10;;;;;;;21.90;85.72;100822.34;5051608;28;20213;-68
2021/07/07 07:52:46;;;;;;;6.63;4.53;;;;;;;21.92;85.07;100814.81;5052023;28;20332;-68
2021/07/07 07:55:15;;;;;;;7.50;4.67;;;;;;;22.03;85.05;100828.09;5049865;28;20199;-70
2021/07/07 07:57:44;;;;;;;10.87;5.17;;;;;;;22.08;85.26;100822.16;5050720;28;20198;-69
2021/07/07 08:00:16;;;;;;;11.23;5.20;;;;;;;22.06;85.13;100818.75;5050130;28;20265;-69
2021/07/07 08:02:45;;;;;;;7.93;5.23;;;;;;;22.15;85.32;100831.38;5054227;28;20518;-69
2021/07/07 08:05:15;;;;;;;8.73;5.10;;;;;;;22.21;84.85;100836.97;5057178;28;20295;-69
2021/07/07 08:07:44;;;;;;;11.37;5.23;;;;;;;22.12;85.51;100842.66;5052940;28;20277;-69
2021/07/07 08:10:15;;;;;;;8.50;5.10;;;;;;;22.21;84.90;100847.94;5051082;28;20202;-69
2021/07/07 08:12:43;;;;;;;7.87;4.93;;;;;;;22.43;82.91;100846.31;5048978;28;20233;-69
2021/07/07 08:15:14;;;;;;;13.27;5.10;;;;;;;22.40;83.38;100840.34;5055808;28;20271;-69
2021/07/07 08:17:42;;;;;;;8.93;5.03;;;;;;;22.31;84.23;100847.69;5053395;28;20272;-69
2021/07/07 08:20:11;;;;;;;8.73;5.57;;;;;;;22.33;84.15;100861.22;5051899;28;20664;-69
2021/07/07 08:22:39;;;;;;;6.63;5.13;;;;;;;22.42;83.53;100849.22;5051471;28;20198;-69
2021/07/07 08:25:09;;;;;;;7.90;5.40;;;;;;;22.50;83.75;100850.03;5055123;28;20558;-69
2021/07/07 08:27:38;;;;;;;8.43;5.33;;;;;;;22.59;84.10;100839.88;5047425;28;20221;-68
2021/07/07 08:30:10;;;;;;;7.93;5.20;;;;;;;22.60;84.58;100834.22;5047450;28;20321;-69
2021/07/07 08:32:40;;;;;;;7.10;4.67;;;;;;;22.58;84.09;100817.13;5048478;28;20708;-68
2021/07/07 08:35:10;;;;;;;7.33;5.13;;;;;;;22.69;84.22;100821.34;5044826;28;20201;-68
2021/07/07 08:37:40;;;;;;;6.27;4.83;;;;;;;22.81;83.97;100821.81;5040887;28;20202;-67
2021/07/07 08:40:11;;;;;;;8.03;5.20;;;;;;;22.87;83.61;100821.06;5042703;28;20202;-69
2021/07/07 08:42:42;;;;;;;7.40;5.20;;;;;;;22.93;83.17;100825.81;5041075;28;20687;-67
2021/07/07 08:45:12;;;;;;;9.67;5.03;;;;;;;23.09;82.69;100831.19;5040735;28;21451;-69
2021/07/07 08:47:44;;;;;;;11.27;4.77;;;;;;;23.19;81.33;100830.94;5041089;28;20210;-69
2021/07/07 08:50:15;;;;;;;6.37;4.83;;;;;;;23.29;80.69;100828.81;5041475;28;20691;-69
2021/07/07 08:52:43;;;;;;;5.37;4.70;;;;;;;23.27;81.01;100828.13;5039607;28;20218;-69
2021/07/07 08:55:15;;;;;;;6.80;5.27;;;;;;;23.34;81.01;100834.59;5048389;28;20633;-69
2021/07/07 08:57:43;;;;;;;8.10;5.30;;;;;;;23.44;80.97;100846.13;5039615;28;20208;-69
2021/07/07 09:00:14;;;;;;;8.27;5.50;;;;;;;23.43;80.67;100860.88;5049206;28;20659;-69
2021/07/07 09:02:59;;;;;;;9.33;5.47;;;;;;;23.22;79.48;100819.59;5042677;28;20202;-69
2021/07/07 09:05:29;;;;;;;7.03;4.97;;;;;;;23.55;80.07;100883.22;5041918;28;20206;-68
2021/07/07 09:08:04;;;;;;;9.37;4.87;;;;;;;23.25;79.29;100827.44;5044520;28;20542;-69
2021/07/07 09:10:34;;;;;;;7.20;5.53;;;;;;;23.47;79.29;100875.91;5043089;28;20611;-68
2021/07/07 09:13:13;;;;;;;7.47;5.10;;;;;;;23.50;78.66;100878.28;5042937;28;20601;-67
2021/07/07 09:15:42;;;;;;;6.20;4.87;;;;;;;23.53;78.50;100879.81;5045997;28;20410;-68
2021/07/07 09:18:19;;;;;;;6.30;5.30;;;;;;;23.63;78.33;100885.94;5043459;28;20653;-68
2021/07/07 09:20:48;;;;;;;8.90;5.13;;;;;;;23.75;77.83;100892.66;5044766;28;20205;-68
2021/07/07 09:23:18;;;;;;;5.73;4.70;;;;;;;23.88;76.47;100907.63;5046914;28;20205;-68
2021/07/07 09:25:52;;;;;;;9.47;5.20;;;;;;;23.91;76.03;100924.59;5047920;28;20186;-69
2021/07/07 09:28:25;;;;;;;6.70;5.17;;;;;;;23.95;74.86;100936.91;5045855;28;20822;-68
2021/07/07 09:30:55;;;;;;;7.30;5.33;;;;;;;23.83;76.04;100941.97;5048521;28;20221;-68
2021/07/07 09:33:25;;;;;;;10.80;6.20;;;;;;;23.82;75.23;100945.75;5037657;28;20643;-68
2021/07/07 09:36:17;;;;;;;10.27;5.77;;;;;;;23.84;72.44;100956.53;5043985;28;20285;-68
2021/07/07 09:38:45;;;;;;;9.67;5.93;;;;;;;23.69;72.67;100964.72;5049088;28;20214;-68
2021/07/07 09:41:14;;;;;;;8.27;5.37;;;;;;;23.64;73.34;100961.69;5043463;28;20605;-68
2021/07/07 09:43:47;;;;;;;8.77;6.40;;;;;;;23.64;73.87;100967.19;5046013;28;20519;-68
2021/07/07 09:46:17;;;;;;;8.00;5.53;;;;;;;23.61;74.34;100978.53;5049971;28;20363;-68
2021/07/07 09:48:47;;;;;;;8.63;5.73;;;;;;;23.61;74.60;100955.72;5042446;28;20206;-68
2021/07/07 09:51:15;;;;;;;7.17;4.90;;;;;;;23.69;74.17;100959.25;5042458;28;20584;-68
2021/07/07 09:53:43;;;;;;;7.70;5.30;;;;;;;23.73;74.65;100960.59;5046889;28;20405;-69
2021/07/07 09:56:12;;;;;;;7.83;4.77;;;;;;;23.92;71.91;100955.63;5041514;28;20206;-68
2021/07/07 09:58:40;;;;;;;9.43;4.70;;;;;;;23.95;72.49;100967.09;5043336;28;20281;-68
2021/07/07 10:01:08;;;;;;;6.30;4.90;;;;;;;24.00;72.71;100963.78;5049905;28;20741;-68
2021/07/07 10:03:37;;;;;;;6.60;4.57;;;;;;;24.21;69.94;100980.38;5039377;28;20205;-68
2021/07/07 10:06:07;;;;;;;6.00;4.43;;;;;;;24.37;68.18;100991.22;5048180;28;20194;-68
2021/07/07 10:08:36;;;;;;;7.20;4.63;;;;;;;24.21;70.17;100957.56;5042775;28;20198;-68
2021/07/07 10:11:05;;;;;;;6.73;4.77;;;;;;;24.46;70.51;100981.84;5045113;28;20222;-68
2021/07/07 10:13:34;;;;;;;6.93;4.70;;;;;;;24.44;71.06;100978.44;5047897;28;20796;-68
2021/07/07 10:16:02;;;;;;;7.27;4.30;;;;;;;24.52;70.53;100995.88;5047440;28;20200;-68
2021/07/07 10:18:32;;;;;;;5.93;4.47;;;;;;;24.55;69.39;101003.75;5044669;28;20206;-68
2021/07/07 10:21:01;;;;;;;6.43;4.33;;;;;;;24.55;69.38;100998.25;5046525;28;20272;-67
2021/07/07 10:23:32;;;;;;;4.63;3.80;;;;;;;24.60;68.59;101001.28;5048377;28;20209;-67
2021/07/07 10:26:02;;;;;;;4.90;4.17;;;;;;;24.67;68.54;101007.72;5049344;28;20209;-67
2021/07/07 10:28:31;;;;;;;5.10;3.83;;;;;;;24.61;68.48;101008.47;5044456;28;20201;-68
2021/07/07 10:31:01;;;;;;;6.13;4.57;;;;;;;24.58;68.87;101006.97;5049963;28;20212;-68
2021/07/07 10:33:31;;;;;;;5.63;4.00;;;;;;;24.64;68.83;101008.09;5044420;28;20213;-68
2021/07/07 10:36:18;;;;;;;5.27;4.30;;;;;;;24.64;69.28;101005.34;5045553;28;20186;-68
2021/07/07 10:38:56;;;;;;;6.47;4.17;;;;;;;24.72;67.73;101010.75;5045932;28;20574;-68
2021/07/07 10:41:47;;;;;;;5.90;4.00;;;;;;;24.64;68.92;101003.47;5048865;28;20281;-68
2021/07/07 10:45:00;;;;;;;6.60;4.00;;;;;;;24.66;69.06;101006.00;5048270;28;20680;-68
2021/07/07 10:47:39;;;;;;;6.37;3.83;;;;;;;24.69;67.60;100998.25;5047782;28;20274;-68
2021/07/07 10:50:09;;;;;;;3.90;3.50;;;;;;;24.74;68.00;100993.03;5047290;28;20196;-67
2021/07/07 10:52:44;;;;;;;4.13;3.53;;;;;;;24.81;68.53;100998.63;5062856;28;20210;-68
2021/07/07 10:55:16;;;;;;;6.70;3.73;;;;;;;24.82;68.68;100996.75;5043145;28;20234;-67
2021/07/07 10:57:46;;;;;;;4.97;3.80;;;;;;;24.94;67.70;100993.31;5045662;28;20218;-69
2021/07/07 11:00:34;;;;;;;4.83;4.00;;;;;;;24.89;67.90;100978.44;5041097;28;20252;-69
2021/07/07 11:03:31;;;;;;;6.27;3.37;;;;;;;25.11;67.70;101002.22;5050630;28;20324;-69
2021/07/07 11:06:01;;;;;;;3.93;3.50;;;;;;;25.11;67.50;101001.38;5042495;28;20194;-68
2021/07/07 11:08:32;;;;;;;5.60;3.90;;;;;;;25.07;66.69;101009.97;5045827;28;20197;-68
2021/07/07 11:11:02;;;;;;;3.83;3.47;;;;;;;25.02;67.58;101012.47;5044387;28;20538;-69
2021/07/07 11:13:44;;;;;;;4.83;3.30;;;;;;;24.76;68.07;100957.09;5045396;28;20228;-68
2021/07/07 11:16:13;;;;;;;5.50;3.23;;;;;;;25.13;68.05;101005.63;5047655;28;20193;-68
2021/07/07 11:18:44;;;;;;;3.83;3.33;;;;;;;24.94;67.19;100987.81;5047109;28;20205;-69
2021/07/07 11:21:12;;;;;;;4.33;3.53;;;;;;;25.15;67.06;101024.69;5044944;28;20478;-68
2021/07/07 11:23:41;;;;;;;4.20;3.20;;;;;;;25.20;65.26;101033.22;5052220;28;20692;-68
2021/07/07 11:26:13;;;;;;;4.37;3.20;;;;;;;25.18;65.72;101033.41;5053073;28;20214;-68
2021/07/07 11:28:42;;;;;;;5.60;3.03;;;;;;;25.06;65.75;101026.66;5053792;28;20200;-68
2021/07/07 11:31:11;;;;;;;3.27;2.97;;;;;;;25.11;64.74;101042.63;5047455;28;20436;-68
2021/07/07 11:33:39;;;;;;;2.83;2.63;;;;;;;25.03;65.63;101051.78;5054064;28;20229;-68
2021/07/07 11:36:09;;;;;;;5.13;2.63;;;;;;;25.04;65.92;101057.09;5052991;28;20228;-68
2021/07/07 11:38:38;;;;;;;3.07;2.77;;;;;;;25.14;65.75;101059.56;5049273;28;20220;-67